sensor_id;sensor_type;location;lat;lon;timestamp;pressure;altitude;pressure_sealevel;temperature
61595;BMP280;47397;48.194;11.632;2023-06-22T00:00:07;96039.44;;;19.60
61595;BMP280;47397;48.194;11.632;2023-06-22T00:01:07;96039.84;;;19.68
61595;BMP280;47397;48.194;11.632;2023-06-22T00:02:08;96032.38;;;19.63
61595;BMP280;47397;48.194;11.632;2023-06-22T00:03:08;96030.88;;;19.59
61595;BMP280;47397;48.194;11.632;2023-06-22T00:04:10;96034.13;;;19.63
61595;BMP280;47397;48.194;11.632;2023-06-22T00:05:10;96021.22;;;19.63
61595;BMP280;47397;48.194;11.632;2023-06-22T00:06:11;96022.41;;;19.57
61595;BMP280;47397;48.194;11.632;2023-06-22T00:07:11;96023.41;;;19.55
61595;BMP280;47397;48.194;11.632;2023-06-22T00:08:12;96021.75;;;19.54
61595;BMP280;47397;48.194;11.632;2023-06-22T00:09:12;96020.66;;;19.58
61595;BMP280;47397;48.194;11.632;2023-06-22T00:10:13;96019.09;;;19.55
61595;BMP280;47397;48.194;11.632;2023-06-22T00:11:13;96030.72;;;19.47
61595;BMP280;47397;48.194;11.632;2023-06-22T00:12:14;96026.13;;;19.52
61595;BMP280;47397;48.194;11.632;2023-06-22T00:13:14;96020.47;;;19.61
61595;BMP280;47397;48.194;11.632;2023-06-22T00:14:15;96023.16;;;19.59
61595;BMP280;47397;48.194;11.632;2023-06-22T00:15:15;96020.69;;;19.42
61595;BMP280;47397;48.194;11.632;2023-06-22T00:16:16;96018.34;;;19.53
61595;BMP280;47397;48.194;11.632;2023-06-22T00:17:16;96023.56;;;19.52
61595;BMP280;47397;48.194;11.632;2023-06-22T00:18:16;96014.25;;;19.49
61595;BMP280;47397;48.194;11.632;2023-06-22T00:19:18;96012.69;;;19.47
61595;BMP280;47397;48.194;11.632;2023-06-22T00:20:18;96009.78;;;19.53
61595;BMP280;47397;48.194;11.632;2023-06-22T00:21:19;96007.44;;;19.48
61595;BMP280;47397;48.194;11.632;2023-06-22T00:22:19;96006.44;;;19.51
61595;BMP280;47397;48.194;11.632;2023-06-22T00:23:20;96011.59;;;19.51
61595;BMP280;47397;48.194;11.632;2023-06-22T00:24:20;96010.84;;;19.49
61595;BMP280;47397;48.194;11.632;2023-06-22T00:25:21;96016.81;;;19.35
61595;BMP280;47397;48.194;11.632;2023-06-22T00:26:21;96021.50;;;19.43
61595;BMP280;47397;48.194;11.632;2023-06-22T00:27:22;96024.75;;;19.46
61595;BMP280;47397;48.194;11.632;2023-06-22T00:28:22;96018.94;;;19.43
61595;BMP280;47397;48.194;11.632;2023-06-22T00:29:23;96015.78;;;19.53
61595;BMP280;47397;48.194;11.632;2023-06-22T00:30:23;96007.25;;;19.51
61595;BMP280;47397;48.194;11.632;2023-06-22T00:31:23;96008.44;;;19.46
61595;BMP280;47397;48.194;11.632;2023-06-22T00:32:24;96009.19;;;19.48
61595;BMP280;47397;48.194;11.632;2023-06-22T00:33:24;96017.56;;;19.51
61595;BMP280;47397;48.194;11.632;2023-06-22T00:34:26;96007.78;;;19.58
61595;BMP280;47397;48.194;11.632;2023-06-22T00:35:27;96008.50;;;19.60
61595;BMP280;47397;48.194;11.632;2023-06-22T00:36:27;96006.44;;;19.51
61595;BMP280;47397;48.194;11.632;2023-06-22T00:37:28;96004.38;;;19.42
61595;BMP280;47397;48.194;11.632;2023-06-22T00:38:28;96000.66;;;19.31
61595;BMP280;47397;48.194;11.632;2023-06-22T00:39:28;96008.38;;;19.31
61595;BMP280;47397;48.194;11.632;2023-06-22T00:40:29;96005.41;;;19.39
61595;BMP280;47397;48.194;11.632;2023-06-22T00:41:30;96010.47;;;19.41
61595;BMP280;47397;48.194;11.632;2023-06-22T00:42:30;96012.28;;;19.39
61595;BMP280;47397;48.194;11.632;2023-06-22T00:43:31;96013.59;;;19.46
61595;BMP280;47397;48.194;11.632;2023-06-22T00:44:31;96014.53;;;19.45
61595;BMP280;47397;48.194;11.632;2023-06-22T00:45:31;96013.03;;;19.41
61595;BMP280;47397;48.194;11.632;2023-06-22T00:46:32;96017.00;;;19.46
61595;BMP280;47397;48.194;11.632;2023-06-22T00:47:33;96015.53;;;19.42
61595;BMP280;47397;48.194;11.632;2023-06-22T00:48:34;96016.94;;;19.32
61595;BMP280;47397;48.194;11.632;2023-06-22T00:49:36;96016.28;;;19.28
61595;BMP280;47397;48.194;11.632;2023-06-22T00:50:36;96015.16;;;19.18
61595;BMP280;47397;48.194;11.632;2023-06-22T00:51:38;96006.50;;;19.35
61595;BMP280;47397;48.194;11.632;2023-06-22T00:52:38;96017.13;;;19.29
61595;BMP280;47397;48.194;11.632;2023-06-22T00:53:38;96013.22;;;19.38
61595;BMP280;47397;48.194;11.632;2023-06-22T00:54:39;96019.41;;;19.49
61595;BMP280;47397;48.194;11.632;2023-06-22T00:55:42;96020.59;;;19.44
61595;BMP280;47397;48.194;11.632;2023-06-22T00:56:43;96016.53;;;19.40
61595;BMP280;47397;48.194;11.632;2023-06-22T00:57:43;96008.34;;;19.47
61595;BMP280;47397;48.194;11.632;2023-06-22T00:58:45;96011.94;;;19.45
61595;BMP280;47397;48.194;11.632;2023-06-22T00:59:47;96020.28;;;19.34
61595;BMP280;47397;48.194;11.632;2023-06-22T01:00:48;96013.78;;;19.43
61595;BMP280;47397;48.194;11.632;2023-06-22T01:01:49;96017.84;;;19.47
61595;BMP280;47397;48.194;11.632;2023-06-22T01:02:50;96012.22;;;19.40
61595;BMP280;47397;48.194;11.632;2023-06-22T01:03:51;96018.19;;;19.41
61595;BMP280;47397;48.194;11.632;2023-06-22T01:04:52;96012.38;;;19.37
61595;BMP280;47397;48.194;11.632;2023-06-22T01:05:58;96011.72;;;19.33
61595;BMP280;47397;48.194;11.632;2023-06-22T01:07:08;96011.03;;;19.30
61595;BMP280;47397;48.194;11.632;2023-06-22T01:08:19;96005.66;;;19.34
61595;BMP280;47397;48.194;11.632;2023-06-22T01:09:28;96007.47;;;19.32
61595;BMP280;47397;48.194;11.632;2023-06-22T01:10:35;96002.94;;;19.22
61595;BMP280;47397;48.194;11.632;2023-06-22T01:11:42;96002.75;;;19.25
61595;BMP280;47397;48.194;11.632;2023-06-22T01:12:45;95998.94;;;19.16
61595;BMP280;47397;48.194;11.632;2023-06-22T01:13:54;95994.00;;;19.27
61595;BMP280;47397;48.194;11.632;2023-06-22T01:15:02;95996.84;;;19.23
61595;BMP280;47397;48.194;11.632;2023-06-22T01:16:08;95989.13;;;19.23
61595;BMP280;47397;48.194;11.632;2023-06-22T01:17:11;95985.03;;;19.34
61595;BMP280;47397;48.194;11.632;2023-06-22T01:18:13;95990.19;;;19.34
61595;BMP280;47397;48.194;11.632;2023-06-22T01:19:29;95982.59;;;19.31
61595;BMP280;47397;48.194;11.632;2023-06-22T01:20:37;95988.59;;;19.32
61595;BMP280;47397;48.194;11.632;2023-06-22T01:21:38;95987.38;;;19.23
61595;BMP280;47397;48.194;11.632;2023-06-22T01:22:48;95986.63;;;19.21
61595;BMP280;47397;48.194;11.632;2023-06-22T01:24:02;95988.72;;;19.15
61595;BMP280;47397;48.194;11.632;2023-06-22T01:25:10;95971.69;;;19.12
61595;BMP280;47397;48.194;11.632;2023-06-22T01:26:17;95979.25;;;19.15
61595;BMP280;47397;48.194;11.632;2023-06-22T01:27:28;95973.75;;;19.21
61595;BMP280;47397;48.194;11.632;2023-06-22T01:28:48;95971.75;;;19.26
61595;BMP280;47397;48.194;11.632;2023-06-22T01:29:50;95964.91;;;19.25
61595;BMP280;47397;48.194;11.632;2023-06-22T01:30:51;95969.91;;;19.28
61595;BMP280;47397;48.194;11.632;2023-06-22T01:31:54;95969.88;;;19.14
61595;BMP280;47397;48.194;11.632;2023-06-22T01:32:56;95974.75;;;19.19
61595;BMP280;47397;48.194;11.632;2023-06-22T01:34:01;95962.03;;;19.16
61595;BMP280;47397;48.194;11.632;2023-06-22T01:35:04;95963.88;;;19.14
61595;BMP280;47397;48.194;11.632;2023-06-22T01:36:06;95967.28;;;19.14
61595;BMP280;47397;48.194;11.632;2023-06-22T01:37:07;95972.00;;;19.22
61595;BMP280;47397;48.194;11.632;2023-06-22T01:38:08;95966.72;;;19.09
61595;BMP280;47397;48.194;11.632;2023-06-22T01:39:09;95971.53;;;19.15
61595;BMP280;47397;48.194;11.632;2023-06-22T01:40:12;95962.41;;;19.10
61595;BMP280;47397;48.194;11.632;2023-06-22T01:41:14;95964.97;;;19.10
61595;BMP280;47397;48.194;11.632;2023-06-22T01:42:16;95963.88;;;19.14
61595;BMP280;47397;48.194;11.632;2023-06-22T01:43:17;95971.47;;;19.01
61595;BMP280;47397;48.194;11.632;2023-06-22T01:44:19;95967.06;;;19.03
61595;BMP280;47397;48.194;11.632;2023-06-22T01:45:21;95968.56;;;19.07
61595;BMP280;47397;48.194;11.632;2023-06-22T01:46:22;95972.88;;;19.07
61595;BMP280;47397;48.194;11.632;2023-06-22T01:47:23;95969.38;;;18.92
61595;BMP280;47397;48.194;11.632;2023-06-22T01:48:24;95970.22;;;19.08
61595;BMP280;47397;48.194;11.632;2023-06-22T01:49:25;95960.47;;;19.13
61595;BMP280;47397;48.194;11.632;2023-06-22T01:50:26;95961.66;;;19.08
61595;BMP280;47397;48.194;11.632;2023-06-22T01:51:26;95967.47;;;19.11
61595;BMP280;47397;48.194;11.632;2023-06-22T01:52:27;95960.47;;;19.13
61595;BMP280;47397;48.194;11.632;2023-06-22T01:53:27;95965.16;;;19.07
61595;BMP280;47397;48.194;11.632;2023-06-22T01:54:27;95960.75;;;19.09
61595;BMP280;47397;48.194;11.632;2023-06-22T01:55:28;95961.56;;;19.09
61595;BMP280;47397;48.194;11.632;2023-06-22T01:56:28;95959.69;;;18.97
61595;BMP280;47397;48.194;11.632;2023-06-22T01:57:29;95957.94;;;18.97
61595;BMP280;47397;48.194;11.632;2023-06-22T01:58:30;95967.47;;;18.95
61595;BMP280;47397;48.194;11.632;2023-06-22T01:59:37;95964.66;;;19.00
61595;BMP280;47397;48.194;11.632;2023-06-22T02:00:41;95968.06;;;19.00
61595;BMP280;47397;48.194;11.632;2023-06-22T02:01:47;95965.41;;;19.02
61595;BMP280;47397;48.194;11.632;2023-06-22T02:02:54;95961.56;;;18.93
61595;BMP280;47397;48.194;11.632;2023-06-22T02:04:03;95966.91;;;18.90
61595;BMP280;47397;48.194;11.632;2023-06-22T02:05:06;95962.66;;;18.89
61595;BMP280;47397;48.194;11.632;2023-06-22T02:06:10;95966.16;;;18.88
61595;BMP280;47397;48.194;11.632;2023-06-22T02:07:17;95969.56;;;18.89
61595;BMP280;47397;48.194;11.632;2023-06-22T02:08:20;95970.31;;;18.91
61595;BMP280;47397;48.194;11.632;2023-06-22T02:09:22;95966.16;;;18.88
61595;BMP280;47397;48.194;11.632;2023-06-22T02:10:23;95966.81;;;18.92
61595;BMP280;47397;48.194;11.632;2023-06-22T02:11:25;95961.25;;;18.84
61595;BMP280;47397;48.194;11.632;2023-06-22T02:12:27;95962.84;;;18.86
61595;BMP280;47397;48.194;11.632;2023-06-22T02:13:28;95962.09;;;18.84
61595;BMP280;47397;48.194;11.632;2023-06-22T02:14:29;95961.69;;;18.76
61595;BMP280;47397;48.194;11.632;2023-06-22T02:15:31;95963.91;;;18.82
61595;BMP280;47397;48.194;11.632;2023-06-22T02:16:31;95968.06;;;18.85
61595;BMP280;47397;48.194;11.632;2023-06-22T02:17:33;95976.31;;;18.76
61595;BMP280;47397;48.194;11.632;2023-06-22T02:18:34;95979.72;;;18.76
61595;BMP280;47397;48.194;11.632;2023-06-22T02:19:36;95977.81;;;18.80
61595;BMP280;47397;48.194;11.632;2023-06-22T02:20:37;95975.66;;;18.72
61595;BMP280;47397;48.194;11.632;2023-06-22T02:21:38;95975.56;;;18.73
61595;BMP280;47397;48.194;11.632;2023-06-22T02:22:38;95981.22;;;18.64
61595;BMP280;47397;48.194;11.632;2023-06-22T02:23:39;95979.31;;;18.68
61595;BMP280;47397;48.194;11.632;2023-06-22T02:24:39;95980.13;;;18.68
61595;BMP280;47397;48.194;11.632;2023-06-22T02:25:40;95973.06;;;18.72
61595;BMP280;47397;48.194;11.632;2023-06-22T02:26:40;95982.94;;;18.80
61595;BMP280;47397;48.194;11.632;2023-06-22T02:27:41;95980.56;;;18.77
61595;BMP280;47397;48.194;11.632;2023-06-22T02:28:41;95977.97;;;18.77
61595;BMP280;47397;48.194;11.632;2023-06-22T02:29:41;95978.06;;;18.75
61595;BMP280;47397;48.194;11.632;2023-06-22T02:30:43;95979.63;;;18.78
61595;BMP280;47397;48.194;11.632;2023-06-22T02:31:44;95982.38;;;18.74
61595;BMP280;47397;48.194;11.632;2023-06-22T02:32:44;95980.97;;;18.69
61595;BMP280;47397;48.194;11.632;2023-06-22T02:33:44;95983.81;;;18.64
61595;BMP280;47397;48.194;11.632;2023-06-22T02:34:45;95985.22;;;18.70
61595;BMP280;47397;48.194;11.632;2023-06-22T02:35:45;95987.69;;;18.71
61595;BMP280;47397;48.194;11.632;2023-06-22T02:36:46;95987.28;;;18.63
61595;BMP280;47397;48.194;11.632;2023-06-22T02:37:47;95989.09;;;18.61
61595;BMP280;47397;48.194;11.632;2023-06-22T02:38:47;95988.38;;;18.58
61595;BMP280;47397;48.194;11.632;2023-06-22T02:39:47;95996.91;;;18.60
61595;BMP280;47397;48.194;11.632;2023-06-22T02:40:48;95991.28;;;18.69
61595;BMP280;47397;48.194;11.632;2023-06-22T02:41:48;95998.56;;;18.61
61595;BMP280;47397;48.194;11.632;2023-06-22T02:42:49;96002.81;;;18.62
61595;BMP280;47397;48.194;11.632;2023-06-22T02:43:49;96003.25;;;18.37
61595;BMP280;47397;48.194;11.632;2023-06-22T02:44:49;95997.59;;;18.46
61595;BMP280;47397;48.194;11.632;2023-06-22T02:45:51;95999.53;;;18.42
61595;BMP280;47397;48.194;11.632;2023-06-22T02:46:52;96001.19;;;18.43
61595;BMP280;47397;48.194;11.632;2023-06-22T02:47:52;96002.19;;;18.41
61595;BMP280;47397;48.194;11.632;2023-06-22T02:48:53;96007.16;;;18.44
61595;BMP280;47397;48.194;11.632;2023-06-22T02:49:53;96006.16;;;18.47
61595;BMP280;47397;48.194;11.632;2023-06-22T02:50:53;96006.16;;;18.31
61595;BMP280;47397;48.194;11.632;2023-06-22T02:51:54;96006.75;;;18.36
61595;BMP280;47397;48.194;11.632;2023-06-22T02:52:54;96002.25;;;18.39
61595;BMP280;47397;48.194;11.632;2023-06-22T02:53:55;96002.59;;;18.33
61595;BMP280;47397;48.194;11.632;2023-06-22T02:54:55;96006.50;;;18.40
61595;BMP280;47397;48.194;11.632;2023-06-22T02:55:55;96009.91;;;18.41
61595;BMP280;47397;48.194;11.632;2023-06-22T02:56:56;96004.91;;;18.22
61595;BMP280;47397;48.194;11.632;2023-06-22T02:57:56;96006.97;;;18.31
61595;BMP280;47397;48.194;11.632;2023-06-22T02:58:57;96004.16;;;18.36
61595;BMP280;47397;48.194;11.632;2023-06-22T02:59:57;96002.84;;;18.29
61595;BMP280;47397;48.194;11.632;2023-06-22T03:00:59;95994.38;;;18.27
61595;BMP280;47397;48.194;11.632;2023-06-22T03:01:59;95991.13;;;18.23
61595;BMP280;47397;48.194;11.632;2023-06-22T03:03:00;95990.88;;;18.28
61595;BMP280;47397;48.194;11.632;2023-06-22T03:04:00;95986.72;;;18.25
61595;BMP280;47397;48.194;11.632;2023-06-22T03:05:01;95988.47;;;18.25
61595;BMP280;47397;48.194;11.632;2023-06-22T03:06:01;95987.72;;;18.23
61595;BMP280;47397;48.194;11.632;2023-06-22T03:07:02;95989.38;;;18.24
61595;BMP280;47397;48.194;11.632;2023-06-22T03:08:03;95989.50;;;18.21
61595;BMP280;47397;48.194;11.632;2023-06-22T03:09:04;95989.75;;;18.16
61595;BMP280;47397;48.194;11.632;2023-06-22T03:10:06;95990.00;;;18.11
61595;BMP280;47397;48.194;11.632;2023-06-22T03:11:06;95982.28;;;18.11
61595;BMP280;47397;48.194;11.632;2023-06-22T03:12:07;95989.50;;;18.21
61595;BMP280;47397;48.194;11.632;2023-06-22T03:13:08;95985.91;;;18.25
61595;BMP280;47397;48.194;11.632;2023-06-22T03:14:08;95983.47;;;18.22
61595;BMP280;47397;48.194;11.632;2023-06-22T03:15:10;95980.19;;;18.02
61595;BMP280;47397;48.194;11.632;2023-06-22T03:16:12;95975.41;;;18.12
61595;BMP280;47397;48.194;11.632;2023-06-22T03:17:13;95977.81;;;18.15
61595;BMP280;47397;48.194;11.632;2023-06-22T03:18:13;95975.72;;;18.06
61595;BMP280;47397;48.194;11.632;2023-06-22T03:19:14;95973.06;;;18.07
61595;BMP280;47397;48.194;11.632;2023-06-22T03:20:14;95976.63;;;18.05
61595;BMP280;47397;48.194;11.632;2023-06-22T03:21:15;95981.03;;;18.03
61595;BMP280;47397;48.194;11.632;2023-06-22T03:22:15;95980.59;;;17.95
61595;BMP280;47397;48.194;11.632;2023-06-22T03:23:16;95976.88;;;18.00
61595;BMP280;47397;48.194;11.632;2023-06-22T03:24:16;95976.78;;;18.02
61595;BMP280;47397;48.194;11.632;2023-06-22T03:25:16;95979.13;;;18.06
61595;BMP280;47397;48.194;11.632;2023-06-22T03:26:18;95978.28;;;18.06
61595;BMP280;47397;48.194;11.632;2023-06-22T03:27:18;95987.75;;;18.05
61595;BMP280;47397;48.194;11.632;2023-06-22T03:28:18;95981.44;;;17.95
61595;BMP280;47397;48.194;11.632;2023-06-22T03:29:19;95986.66;;;17.94
61595;BMP280;47397;48.194;11.632;2023-06-22T03:30:19;95985.50;;;17.99
61595;BMP280;47397;48.194;11.632;2023-06-22T03:31:21;95989.31;;;17.92
61595;BMP280;47397;48.194;11.632;2023-06-22T03:32:22;95982.19;;;17.97
61595;BMP280;47397;48.194;11.632;2023-06-22T03:33:22;95982.00;;;18.00
61595;BMP280;47397;48.194;11.632;2023-06-22T03:34:23;95986.16;;;18.03
61595;BMP280;47397;48.194;11.632;2023-06-22T03:35:23;95989.66;;;18.02
61595;BMP280;47397;48.194;11.632;2023-06-22T03:36:23;95988.81;;;18.01
61595;BMP280;47397;48.194;11.632;2023-06-22T03:37:24;95982.94;;;17.99
61595;BMP280;47397;48.194;11.632;2023-06-22T03:38:24;95979.28;;;18.03
61595;BMP280;47397;48.194;11.632;2023-06-22T03:39:25;95984.19;;;18.08
61595;BMP280;47397;48.194;11.632;2023-06-22T03:40:25;95986.41;;;17.98
61595;BMP280;47397;48.194;11.632;2023-06-22T03:41:26;95981.84;;;18.03
61595;BMP280;47397;48.194;11.632;2023-06-22T03:42:26;95980.19;;;18.02
61595;BMP280;47397;48.194;11.632;2023-06-22T03:43:26;95981.63;;;18.08
61595;BMP280;47397;48.194;11.632;2023-06-22T03:44:27;95977.47;;;18.05
61595;BMP280;47397;48.194;11.632;2023-06-22T03:45:27;95990.81;;;17.96
61595;BMP280;47397;48.194;11.632;2023-06-22T03:46:29;95991.63;;;17.97
61595;BMP280;47397;48.194;11.632;2023-06-22T03:47:29;95991.78;;;17.94
61595;BMP280;47397;48.194;11.632;2023-06-22T03:48:30;95990.97;;;17.93
61595;BMP280;47397;48.194;11.632;2023-06-22T03:49:30;95998.28;;;18.01
61595;BMP280;47397;48.194;11.632;2023-06-22T03:50:31;95994.88;;;18.00
61595;BMP280;47397;48.194;11.632;2023-06-22T03:51:32;95993.69;;;17.90
61595;BMP280;47397;48.194;11.632;2023-06-22T03:52:33;95994.78;;;18.02
61595;BMP280;47397;48.194;11.632;2023-06-22T03:53:33;96003.03;;;18.08
61595;BMP280;47397;48.194;11.632;2023-06-22T03:54:34;96002.34;;;18.05
61595;BMP280;47397;48.194;11.632;2023-06-22T03:55:34;95998.03;;;18.05
61595;BMP280;47397;48.194;11.632;2023-06-22T03:56:34;95999.69;;;18.06
61595;BMP280;47397;48.194;11.632;2023-06-22T03:57:35;95994.81;;;18.18
61595;BMP280;47397;48.194;11.632;2023-06-22T03:58:35;95998.00;;;18.23
61595;BMP280;47397;48.194;11.632;2023-06-22T03:59:36;95995.66;;;18.18
61595;BMP280;47397;48.194;11.632;2023-06-22T04:00:36;95999.63;;;18.08
61595;BMP280;47397;48.194;11.632;2023-06-22T04:01:38;95991.41;;;18.17
61595;BMP280;47397;48.194;11.632;2023-06-22T04:02:38;95995.81;;;18.15
61595;BMP280;47397;48.194;11.632;2023-06-22T04:03:39;95994.97;;;18.15
61595;BMP280;47397;48.194;11.632;2023-06-22T04:04:39;96000.13;;;18.15
61595;BMP280;47397;48.194;11.632;2023-06-22T04:05:40;95994.53;;;18.24
61595;BMP280;47397;48.194;11.632;2023-06-22T04:06:40;95999.88;;;18.19
61595;BMP280;47397;48.194;11.632;2023-06-22T04:07:41;95998.47;;;18.13
61595;BMP280;47397;48.194;11.632;2023-06-22T04:08:41;95994.81;;;18.18
61595;BMP280;47397;48.194;11.632;2023-06-22T04:09:42;95997.22;;;18.21
61595;BMP280;47397;48.194;11.632;2023-06-22T04:10:42;95997.41;;;18.18
61595;BMP280;47397;48.194;11.632;2023-06-22T04:11:43;95997.31;;;18.19
61595;BMP280;47397;48.194;11.632;2023-06-22T04:12:43;96005.66;;;18.24
61595;BMP280;47397;48.194;11.632;2023-06-22T04:13:43;96003.06;;;18.24
61595;BMP280;47397;48.194;11.632;2023-06-22T04:14:44;96000.34;;;18.27
61595;BMP280;47397;48.194;11.632;2023-06-22T04:15:44;96005.25;;;18.32
61595;BMP280;47397;48.194;11.632;2023-06-22T04:16:46;96007.72;;;18.33
61595;BMP280;47397;48.194;11.632;2023-06-22T04:17:47;96007.00;;;18.47
61595;BMP280;47397;48.194;11.632;2023-06-22T04:18:47;96001.84;;;18.47
61595;BMP280;47397;48.194;11.632;2023-06-22T04:19:47;96007.31;;;18.57
61595;BMP280;47397;48.194;11.632;2023-06-22T04:20:48;96005.09;;;18.51
61595;BMP280;47397;48.194;11.632;2023-06-22T04:21:48;96000.91;;;18.65
61595;BMP280;47397;48.194;11.632;2023-06-22T04:22:49;95999.53;;;18.58
61595;BMP280;47397;48.194;11.632;2023-06-22T04:23:49;95999.16;;;18.66
61595;BMP280;47397;48.194;11.632;2023-06-22T04:24:49;95998.75;;;18.73
61595;BMP280;47397;48.194;11.632;2023-06-22T04:25:50;95998.00;;;18.71
61595;BMP280;47397;48.194;11.632;2023-06-22T04:26:50;95997.25;;;18.69
61595;BMP280;47397;48.194;11.632;2023-06-22T04:27:51;95996.16;;;18.73
61595;BMP280;47397;48.194;11.632;2023-06-22T04:28:51;95996.16;;;18.89
61595;BMP280;47397;48.194;11.632;2023-06-22T04:29:52;95991.69;;;18.77
61595;BMP280;47397;48.194;11.632;2023-06-22T04:30:53;95996.56;;;18.82
61595;BMP280;47397;48.194;11.632;2023-06-22T04:31:54;95991.25;;;18.85
61595;BMP280;47397;48.194;11.632;2023-06-22T04:32:55;95988.41;;;18.89
61595;BMP280;47397;48.194;11.632;2023-06-22T04:33:55;95988.50;;;19.03
61595;BMP280;47397;48.194;11.632;2023-06-22T04:34:56;95986.25;;;19.13
61595;BMP280;47397;48.194;11.632;2023-06-22T04:35:57;95988.41;;;19.05
61595;BMP280;47397;48.194;11.632;2023-06-22T04:36:58;95986.41;;;19.10
61595;BMP280;47397;48.194;11.632;2023-06-22T04:37:58;95982.34;;;19.06
61595;BMP280;47397;48.194;11.632;2023-06-22T04:38:59;95982.53;;;19.03
61595;BMP280;47397;48.194;11.632;2023-06-22T04:39:59;95990.16;;;18.89
61595;BMP280;47397;48.194;11.632;2023-06-22T04:41:00;95988.34;;;18.91
61595;BMP280;47397;48.194;11.632;2023-06-22T04:42:00;95982.53;;;19.03
61595;BMP280;47397;48.194;11.632;2023-06-22T04:43:00;95993.25;;;18.80
61595;BMP280;47397;48.194;11.632;2023-06-22T04:44:01;95993.50;;;18.91
61595;BMP280;47397;48.194;11.632;2023-06-22T04:45:01;95985.75;;;19.07
61595;BMP280;47397;48.194;11.632;2023-06-22T04:46:02;95988.06;;;19.11
61595;BMP280;47397;48.194;11.632;2023-06-22T04:47:04;95981.09;;;19.13
61595;BMP280;47397;48.194;11.632;2023-06-22T04:48:05;95991.69;;;19.23
61595;BMP280;47397;48.194;11.632;2023-06-22T04:49:06;95983.06;;;19.24
61595;BMP280;47397;48.194;11.632;2023-06-22T04:50:06;95980.34;;;19.11
61595;BMP280;47397;48.194;11.632;2023-06-22T04:51:07;95983.50;;;19.16
61595;BMP280;47397;48.194;11.632;2023-06-22T04:52:08;95974.88;;;19.01
61595;BMP280;47397;48.194;11.632;2023-06-22T04:53:09;95984.06;;;19.21
61595;BMP280;47397;48.194;11.632;2023-06-22T04:54:09;95973.53;;;19.10
61595;BMP280;47397;48.194;11.632;2023-06-22T04:55:10;95975.41;;;19.22
61595;BMP280;47397;48.194;11.632;2023-06-22T04:56:10;95976.97;;;19.25
61595;BMP280;47397;48.194;11.632;2023-06-22T04:57:11;95977.41;;;19.33
61595;BMP280;47397;48.194;11.632;2023-06-22T04:58:11;95968.78;;;19.48
61595;BMP280;47397;48.194;11.632;2023-06-22T04:59:12;95974.53;;;19.53
61595;BMP280;47397;48.194;11.632;2023-06-22T05:00:13;95973.97;;;19.62
61595;BMP280;47397;48.194;11.632;2023-06-22T05:01:14;95970.47;;;19.63
61595;BMP280;47397;48.194;11.632;2023-06-22T05:02:15;95980.63;;;19.66
61595;BMP280;47397;48.194;11.632;2023-06-22T05:03:16;95974.91;;;19.61
61595;BMP280;47397;48.194;11.632;2023-06-22T05:04:16;95973.28;;;19.75
61595;BMP280;47397;48.194;11.632;2023-06-22T05:05:17;95972.63;;;19.71
61595;BMP280;47397;48.194;11.632;2023-06-22T05:06:17;95974.06;;;19.61
61595;BMP280;47397;48.194;11.632;2023-06-22T05:07:18;95982.19;;;19.69
61595;BMP280;47397;48.194;11.632;2023-06-22T05:08:18;95977.94;;;19.68
61595;BMP280;47397;48.194;11.632;2023-06-22T05:09:19;95983.88;;;19.84
61595;BMP280;47397;48.194;11.632;2023-06-22T05:10:19;95973.47;;;19.72
61595;BMP280;47397;48.194;11.632;2023-06-22T05:11:20;95976.31;;;19.81
61595;BMP280;47397;48.194;11.632;2023-06-22T05:12:20;95973.56;;;19.84
61595;BMP280;47397;48.194;11.632;2023-06-22T05:13:21;95970.63;;;19.90
61595;BMP280;47397;48.194;11.632;2023-06-22T05:14:21;95961.69;;;19.96
61595;BMP280;47397;48.194;11.632;2023-06-22T05:15:22;95962.97;;;20.03
61595;BMP280;47397;48.194;11.632;2023-06-22T05:16:23;95960.38;;;20.03
61595;BMP280;47397;48.194;11.632;2023-06-22T05:17:25;95955.44;;;20.14
61595;BMP280;47397;48.194;11.632;2023-06-22T05:18:25;95954.69;;;20.12
61595;BMP280;47397;48.194;11.632;2023-06-22T05:19:26;95955.16;;;20.19
61595;BMP280;47397;48.194;11.632;2023-06-22T05:20:26;95955.44;;;20.14
61595;BMP280;47397;48.194;11.632;2023-06-22T05:21:27;95960.22;;;20.20
61595;BMP280;47397;48.194;11.632;2023-06-22T05:22:27;95964.66;;;20.47
61595;BMP280;47397;48.194;11.632;2023-06-22T05:23:28;95963.84;;;20.73
61595;BMP280;47397;48.194;11.632;2023-06-22T05:24:28;95963.19;;;20.70
61595;BMP280;47397;48.194;11.632;2023-06-22T05:25:28;95971.69;;;20.99
61595;BMP280;47397;48.194;11.632;2023-06-22T05:26:30;95971.72;;;21.26
61595;BMP280;47397;48.194;11.632;2023-06-22T05:27:31;95975.66;;;21.31
61595;BMP280;47397;48.194;11.632;2023-06-22T05:28:32;95967.28;;;21.40
61595;BMP280;47397;48.194;11.632;2023-06-22T05:29:33;95971.38;;;21.57
61595;BMP280;47397;48.194;11.632;2023-06-22T05:30:33;95970.66;;;21.80
61595;BMP280;47397;48.194;11.632;2023-06-22T05:31:33;95974.47;;;21.75
61595;BMP280;47397;48.194;11.632;2023-06-22T05:32:36;95966.00;;;21.60
61595;BMP280;47397;48.194;11.632;2023-06-22T05:33:36;95970.63;;;21.55
61595;BMP280;47397;48.194;11.632;2023-06-22T05:34:37;95970.09;;;21.37
61595;BMP280;47397;48.194;11.632;2023-06-22T05:35:37;95967.66;;;21.61
61595;BMP280;47397;48.194;11.632;2023-06-22T05:36:37;95975.00;;;21.80
61595;BMP280;47397;48.194;11.632;2023-06-22T05:37:38;95974.28;;;21.91
61595;BMP280;47397;48.194;11.632;2023-06-22T05:38:39;95970.13;;;21.75
61595;BMP280;47397;48.194;11.632;2023-06-22T05:39:39;95976.44;;;21.71
61595;BMP280;47397;48.194;11.632;2023-06-22T05:40:40;95973.06;;;22.09
61595;BMP280;47397;48.194;11.632;2023-06-22T05:41:40;95973.34;;;22.30
61595;BMP280;47397;48.194;11.632;2023-06-22T05:42:41;95976.66;;;22.44
61595;BMP280;47397;48.194;11.632;2023-06-22T05:43:41;95968.88;;;22.44
61595;BMP280;47397;48.194;11.632;2023-06-22T05:44:42;95974.75;;;22.59
61595;BMP280;47397;48.194;11.632;2023-06-22T05:45:42;95966.97;;;22.72
61595;BMP280;47397;48.194;11.632;2023-06-22T05:46:43;95971.97;;;22.50
61595;BMP280;47397;48.194;11.632;2023-06-22T05:47:48;95964.50;;;22.58